createdAt,value
2022-12-28T00:00:23.065Z,0.67
2022-12-28T00:05:38.003Z,0.63
2022-12-28T00:11:08.772Z,0.59
2022-12-28T00:16:09.211Z,0.65
2022-12-28T00:21:21.571Z,0.62
2022-12-28T00:26:28.093Z,0.69
2022-12-28T00:31:42.392Z,0.67
2022-12-28T00:37:10.212Z,0.69
2022-12-28T00:42:14.844Z,0.69
2022-12-28T00:47:28.126Z,0.78
2022-12-28T00:52:33.393Z,0.68
2022-12-28T00:57:38.603Z,0.72
2022-12-28T01:02:43.023Z,0.79
2022-12-28T01:07:48.540Z,0.79
2022-12-28T01:12:57.684Z,0.78
2022-12-28T01:18:06.695Z,0.79
2022-12-28T01:23:16.717Z,0.79
2022-12-28T01:28:24.835Z,0.65
2022-12-28T01:33:30.400Z,0.66
2022-12-28T01:38:41.679Z,0.59
2022-12-28T01:43:45.658Z,0.70
2022-12-28T01:48:51.150Z,0.67
2022-12-28T01:53:55.664Z,0.79
2022-12-28T01:58:59.576Z,0.81
2022-12-28T02:04:04.103Z,0.79
2022-12-28T02:09:09.275Z,0.84
2022-12-28T02:14:16.309Z,0.90
2022-12-28T02:19:20.561Z,0.99
2022-12-28T02:24:24.755Z,0.99
2022-12-28T02:29:30.029Z,1.03
2022-12-28T02:34:35.069Z,1.02
2022-12-28T02:39:49.015Z,1.08
2022-12-28T02:45:09.704Z,1.11
2022-12-28T02:50:13.635Z,1.10
2022-12-28T02:55:41.094Z,1.06
2022-12-28T03:00:46.421Z,1.11
2022-12-28T03:06:08.564Z,1.17
2022-12-28T03:11:15.916Z,1.22
2022-12-28T03:16:20.414Z,1.29
2022-12-28T03:21:42.429Z,1.36
2022-12-28T03:27:03.246Z,1.36
2022-12-28T03:32:08.401Z,1.35
2022-12-28T03:37:16.573Z,1.43
2022-12-28T03:42:38.326Z,1.47
2022-12-28T03:47:56.257Z,1.51
2022-12-28T03:53:01.893Z,1.58
2022-12-28T03:58:06.393Z,1.62
2022-12-28T04:03:10.810Z,1.66
2022-12-28T04:08:17.204Z,1.74
2022-12-28T04:18:42.187Z,1.79
2022-12-28T04:23:46.696Z,1.86
2022-12-28T04:28:53.585Z,1.79
2022-12-28T04:34:01.473Z,1.82
2022-12-28T04:39:05.364Z,1.78
2022-12-28T04:44:10.612Z,1.79
2022-12-28T04:49:16.142Z,1.81
2022-12-28T04:54:22.897Z,1.79
2022-12-28T04:59:37.165Z,1.75
2022-12-28T05:04:41.948Z,1.88
2022-12-28T05:09:56.373Z,1.93
2022-12-28T05:15:02.243Z,1.99
2022-12-28T05:20:13.617Z,2.08
2022-12-28T05:25:17.190Z,2.22
2022-12-28T05:30:24.358Z,2.37
2022-12-28T05:35:31.138Z,2.44
2022-12-28T05:40:36.699Z,2.53
2022-12-28T05:45:54.267Z,2.59
2022-12-28T05:50:59.697Z,2.63
2022-12-28T05:56:16.410Z,2.72
2022-12-28T06:01:25.862Z,2.72
2022-12-28T06:06:29.476Z,2.74
2022-12-28T06:11:41.029Z,2.82
2022-12-28T06:16:46.811Z,2.84
2022-12-28T06:21:51.054Z,2.76
2022-12-28T06:26:57.907Z,2.83
2022-12-28T06:32:01.717Z,2.84
2022-12-28T06:37:11.268Z,2.84
2022-12-28T06:42:23.260Z,2.82
2022-12-28T06:47:30.393Z,2.86
2022-12-28T06:52:37.367Z,2.78
2022-12-28T06:57:41.284Z,2.83
2022-12-28T07:02:53.056Z,2.86
2022-12-28T07:07:57.209Z,2.88
2022-12-28T07:13:01.044Z,2.91
2022-12-28T07:18:07.104Z,2.97
2022-12-28T07:23:12.400Z,2.96
2022-12-28T07:28:19.939Z,3.00
2022-12-28T07:33:30.569Z,3.16
2022-12-28T07:38:35.390Z,3.20
2022-12-28T07:43:38.682Z,3.24
2022-12-28T07:48:42.935Z,3.26
2022-12-28T07:53:47.779Z,3.42
2022-12-28T07:58:52.077Z,3.51
2022-12-28T08:03:59.456Z,3.70
2022-12-28T08:09:04.386Z,3.79
2022-12-28T08:14:08.308Z,4.04
2022-12-28T08:19:14.911Z,4.13
2022-12-28T08:24:22.482Z,4.34
2022-12-28T08:29:39.523Z,4.52
2022-12-28T08:34:43.351Z,4.72
2022-12-28T08:39:50.264Z,4.94
2022-12-28T08:44:53.613Z,4.86
2022-12-28T08:49:57.065Z,5.05
2022-12-28T08:55:01.359Z,5.27
2022-12-28T09:00:06.273Z,5.49
2022-12-28T09:05:14.830Z,5.42
2022-12-28T09:10:30.484Z,5.38
2022-12-28T09:15:34.904Z,5.67
2022-12-28T09:20:43.118Z,5.70
2022-12-28T09:25:51.529Z,5.69
2022-12-28T09:30:54.992Z,5.84
2022-12-28T09:36:00.886Z,6.04
2022-12-28T09:41:06.781Z,6.00
2022-12-28T09:46:16.864Z,5.94
2022-12-28T09:51:23.221Z,5.88
2022-12-28T09:56:30.173Z,5.86
2022-12-28T10:01:34.978Z,5.96
2022-12-28T10:06:41.289Z,6.02
2022-12-28T10:11:52.649Z,6.36
2022-12-28T10:16:59.167Z,6.61
2022-12-28T10:22:05.776Z,6.84
2022-12-28T10:27:09.475Z,6.93
2022-12-28T10:32:17.683Z,6.81
2022-12-28T10:37:22.191Z,7.04
2022-12-28T10:42:26.167Z,7.05
2022-12-28T10:47:31.632Z,7.08
2022-12-28T10:52:42.614Z,7.18
2022-12-28T10:58:28.692Z,6.88
2022-12-28T11:03:28.056Z,6.47
2022-12-28T11:08:35.012Z,6.35
2022-12-28T11:13:46.747Z,6.21
2022-12-28T11:18:51.716Z,6.20
2022-12-28T11:24:01.570Z,6.11
2022-12-28T11:29:06.458Z,6.19
2022-12-28T11:34:09.609Z,6.15
2022-12-28T11:39:13.922Z,6.15
2022-12-28T11:44:20.117Z,6.13
2022-12-28T11:49:27.002Z,6.27
2022-12-28T11:54:35.180Z,6.30
2022-12-28T11:59:48.362Z,6.31
2022-12-28T12:05:05.349Z,6.46
2022-12-28T12:10:11.073Z,6.54
2022-12-28T12:15:15.412Z,6.60
2022-12-28T12:20:20.663Z,6.67
2022-12-28T12:25:32.587Z,6.69
2022-12-28T12:30:51.176Z,6.60
2022-12-28T12:35:55.579Z,6.63
2022-12-28T12:41:01.527Z,6.61
2022-12-28T12:46:05.982Z,6.70
2022-12-28T12:51:11.575Z,6.84
2022-12-28T12:56:18.996Z,7.11
2022-12-28T13:01:29.315Z,7.36
2022-12-28T13:06:33.738Z,7.51
2022-12-28T13:11:39.280Z,7.68
2022-12-28T13:16:45.810Z,8.12
2022-12-28T13:21:52.321Z,8.44
2022-12-28T13:26:56.004Z,8.52
2022-12-28T13:31:59.610Z,8.48
2022-12-28T13:37:04.990Z,8.58
2022-12-28T13:42:12.365Z,8.61
2022-12-28T13:47:15.698Z,8.60
2022-12-28T13:52:21.468Z,8.58
2022-12-28T13:57:51.483Z,8.45
2022-12-28T14:02:59.290Z,8.50
2022-12-28T14:08:05.780Z,8.45
2022-12-28T14:13:11.459Z,8.44
2022-12-28T14:18:24.583Z,8.33
2022-12-28T14:23:29.938Z,8.31
2022-12-28T14:28:34.647Z,8.22
2022-12-28T14:33:40.767Z,8.20
2022-12-28T14:38:44.668Z,8.06
2022-12-28T14:43:48.105Z,8.04
2022-12-28T14:48:52.075Z,8.03
2022-12-28T14:53:55.030Z,7.91
2022-12-28T14:58:59.459Z,7.90
2022-12-28T15:04:03.896Z,7.81
2022-12-28T15:09:09.347Z,7.58
2022-12-28T15:14:18.043Z,7.49
2022-12-28T15:19:29.036Z,7.46
2022-12-28T15:24:34.346Z,7.36
2022-12-28T15:30:04.373Z,7.31
2022-12-28T15:35:03.372Z,7.25
2022-12-28T15:40:07.306Z,7.11
2022-12-28T15:45:10.451Z,6.97
2022-12-28T15:50:14.330Z,6.81
2022-12-28T15:55:19.485Z,6.52
2022-12-28T16:00:22.716Z,6.26
2022-12-28T16:05:26.909Z,6.08
2022-12-28T16:10:32.202Z,5.98
2022-12-28T16:15:36.620Z,5.70
2022-12-28T16:20:40.532Z,5.48
2022-12-28T16:25:45.234Z,5.37
2022-12-28T16:30:50.272Z,5.27
2022-12-28T16:35:59.305Z,5.06
2022-12-28T16:41:05.763Z,4.86
2022-12-28T16:46:09.748Z,4.67
2022-12-28T16:51:13.291Z,4.71
2022-12-28T16:56:17.657Z,4.57
2022-12-28T17:01:23.793Z,4.42
2022-12-28T17:06:28.355Z,4.42
2022-12-28T17:11:32.386Z,4.48
2022-12-28T17:16:40.161Z,4.36
2022-12-28T17:21:44.083Z,4.43
2022-12-28T17:26:47.576Z,4.50
2022-12-28T17:31:58.496Z,4.46
2022-12-28T17:37:02.018Z,4.55
2022-12-28T17:42:06.062Z,4.54
2022-12-28T17:47:10.482Z,4.46
2022-12-28T17:52:20.278Z,4.44
2022-12-28T17:57:25.311Z,4.18
2022-12-28T18:02:30.836Z,4.15
2022-12-28T18:07:34.567Z,4.22
2022-12-28T18:12:38.227Z,4.22
2022-12-28T18:17:47.192Z,4.19
2022-12-28T18:22:52.948Z,4.13
2022-12-28T18:27:57.243Z,4.22
2022-12-28T18:33:01.570Z,4.20
2022-12-28T18:38:06.789Z,4.16
2022-12-28T18:43:10.349Z,4.14
2022-12-28T18:48:15.715Z,4.15
2022-12-28T18:53:20.614Z,4.10
2022-12-28T18:58:29.205Z,3.99
2022-12-28T19:03:33.055Z,3.92
2022-12-28T19:08:37.826Z,3.80
2022-12-28T19:13:41.969Z,3.78
2022-12-28T19:18:46.268Z,3.63
2022-12-28T19:23:49.886Z,3.65
2022-12-28T19:28:54.128Z,3.64
2022-12-28T19:33:57.669Z,3.67
2022-12-28T19:39:00.708Z,3.64
2022-12-28T19:44:04.645Z,3.61
2022-12-28T19:49:08.266Z,3.51
2022-12-28T19:54:12.889Z,3.52
2022-12-28T19:59:17.181Z,3.54
2022-12-28T20:04:27.100Z,3.51
2022-12-28T20:09:39.755Z,3.44
2022-12-28T20:14:43.669Z,3.46
2022-12-28T20:19:47.090Z,3.42
2022-12-28T20:24:52.003Z,3.55
2022-12-28T20:29:55.719Z,3.66
2022-12-28T20:35:00.518Z,3.65
2022-12-28T20:40:04.476Z,3.75
2022-12-28T20:45:08.882Z,3.65
2022-12-28T20:50:14.755Z,3.61
2022-12-28T20:55:17.523Z,3.58
2022-12-28T21:00:25.178Z,3.51
2022-12-28T21:05:30.849Z,3.49
2022-12-28T21:10:34.319Z,3.46
2022-12-28T21:15:44.638Z,3.47
2022-12-28T21:20:47.915Z,3.42
2022-12-28T21:25:51.982Z,3.30
2022-12-28T21:30:58.075Z,3.30
2022-12-28T21:36:01.589Z,3.31
2022-12-28T21:41:04.892Z,3.29
2022-12-28T21:46:07.768Z,3.28
2022-12-28T21:51:33.480Z,3.33
2022-12-28T21:56:36.707Z,3.34
2022-12-28T22:01:57.340Z,3.38
2022-12-28T22:07:00.628Z,3.27
2022-12-28T22:12:21.568Z,3.24
2022-12-28T22:17:24.638Z,3.21
2022-12-28T22:22:28.356Z,3.21
2022-12-28T22:27:33.500Z,3.20
2022-12-28T22:32:36.727Z,3.20
2022-12-28T22:37:40.614Z,3.16
2022-12-28T22:42:45.265Z,3.10
2022-12-28T22:47:48.846Z,3.03
2022-12-28T22:52:54.582Z,2.97
2022-12-28T22:58:02.401Z,3.03
2022-12-28T23:03:14.204Z,3.06
2022-12-28T23:08:19.534Z,3.21
2022-12-28T23:13:23.060Z,3.27
2022-12-28T23:18:46.307Z,3.38
2022-12-28T23:24:07.921Z,3.38
2022-12-28T23:29:15.568Z,3.48
2022-12-28T23:34:23.152Z,3.51
2022-12-28T23:39:28.927Z,3.58
2022-12-28T23:44:35.899Z,3.52
2022-12-28T23:49:41.593Z,3.57
2022-12-28T23:54:47.223Z,3.61
2022-12-28T23:59:51.504Z,3.66
